Time;durP1;ratioP1;P1;durP2;ratioP2;P2;SDS_P1;SDS_P2;PMS_P1;PMS_P2;Temp;Humidity;BMP_temperature;BMP_pressure;BME280_temperature;BME280_humidity;BME280_pressure;Samples;Min_cycle;Max_cycle;Signal;HPM_P1;HPM_P2
2024/02/23 00:00:05;;;;;;;0.87;0.10;;;;;;;;;;5040907;28;20668;-77
2024/02/23 00:02:31;;;;;;;1.80;0.20;;;;;;;;;;5029324;28;20190;-76
2024/02/23 00:04:56;;;;;;;0.40;0.10;;;;;;;;;;5029855;28;20186;-77
2024/02/23 00:07:22;;;;;;;1.90;0.20;;;;;;;;;;5036459;28;20224;-76
2024/02/23 00:09:47;;;;;;;0.30;0.10;;;;;;;;;;5039259;28;20197;-77
2024/02/23 00:12:14;;;;;;;0.30;0.10;;;;;;;;;;5045526;28;20223;-77
2024/02/23 00:14:39;;;;;;;1.60;0.10;;;;;;;;;;5032890;28;20190;-78
2024/02/23 00:17:05;;;;;;;0.10;0.10;;;;;;;;;;5036531;28;20274;-76
2024/02/23 00:19:31;;;;;;;1.33;0.10;;;;;;;;;;5017290;28;20256;-75
2024/02/23 00:21:58;;;;;;;0.17;0.00;;;;;;;;;;5036533;28;20231;-77
2024/02/23 00:24:27;;;;;;;2.10;0.17;;;;;;;;;;5050628;28;20645;-76
2024/02/23 00:26:52;;;;;;;0.00;0.00;;;;;;;;;;5034820;28;20204;-78
2024/02/23 00:29:18;;;;;;;0.73;0.10;;;;;;;;;;5041224;28;20591;-77
2024/02/23 00:31:46;;;;;;;0.27;0.10;;;;;;;;;;5031007;28;20685;-78
2024/02/23 00:34:13;;;;;;;3.83;0.50;;;;;;;;;;5043250;28;20217;-78
2024/02/23 00:36:39;;;;;;;0.87;0.27;;;;;;;;;;5045181;28;20553;-77
2024/02/23 00:39:07;;;;;;;1.37;0.10;;;;;;;;;;5034448;28;20214;-75
2024/02/23 00:41:32;;;;;;;0.97;0.20;;;;;;;;;;5018085;28;20240;-76
2024/02/23 00:43:58;;;;;;;0.73;0.20;;;;;;;;;;5033096;28;20185;-77
2024/02/23 00:46:23;;;;;;;0.77;0.27;;;;;;;;;;5044975;28;20288;-77
2024/02/23 00:48:49;;;;;;;0.60;0.37;;;;;;;;;;5030857;28;20626;-77
2024/02/23 00:51:14;;;;;;;0.87;0.30;;;;;;;;;;5048197;28;20217;-77
2024/02/23 00:53:39;;;;;;;0.63;0.40;;;;;;;;;;5037171;28;20186;-78
2024/02/23 00:56:05;;;;;;;1.30;0.40;;;;;;;;;;5013718;28;20205;-76
2024/02/23 00:58:31;;;;;;;2.93;0.50;;;;;;;;;;5040601;28;20189;-76
2024/02/23 01:00:56;;;;;;;1.87;0.50;;;;;;;;;;5035476;28;20189;-76
2024/02/23 01:03:22;;;;;;;2.40;0.60;;;;;;;;;;5023826;28;20194;-76
2024/02/23 01:05:48;;;;;;;1.20;0.53;;;;;;;;;;5036151;28;20193;-76
2024/02/23 01:08:13;;;;;;;2.70;0.67;;;;;;;;;;5027755;28;20324;-76
2024/02/23 01:10:38;;;;;;;1.87;0.60;;;;;;;;;;5048092;28;20284;-78
2024/02/23 01:13:05;;;;;;;1.80;0.87;;;;;;;;;;5047781;28;20330;-77
2024/02/23 01:15:30;;;;;;;2.50;0.70;;;;;;;;;;5025017;28;20244;-77
2024/02/23 01:17:56;;;;;;;2.63;0.77;;;;;;;;;;5031771;28;20612;-77
2024/02/23 01:20:22;;;;;;;1.73;1.03;;;;;;;;;;5045972;28;20188;-76
2024/02/23 01:22:47;;;;;;;2.90;1.40;;;;;;;;;;5040723;28;20185;-77
2024/02/23 01:25:15;;;;;;;3.00;1.00;;;;;;;;;;5014003;28;20193;-77
2024/02/23 01:27:41;;;;;;;3.80;0.93;;;;;;;;;;5039109;28;20563;-80
2024/02/23 01:30:07;;;;;;;5.07;0.93;;;;;;;;;;5045746;28;20285;-77
2024/02/23 01:32:32;;;;;;;6.40;1.40;;;;;;;;;;5044903;28;20441;-77
2024/02/23 01:34:58;;;;;;;4.67;1.10;;;;;;;;;;5013769;28;20272;-76
2024/02/23 01:37:23;;;;;;;7.87;1.63;;;;;;;;;;5028564;28;20178;-76
2024/02/23 01:39:49;;;;;;;5.70;1.20;;;;;;;;;;5043705;28;20178;-78
2024/02/23 01:42:15;;;;;;;3.47;1.53;;;;;;;;;;5033002;28;20189;-77
2024/02/23 01:44:40;;;;;;;5.17;1.90;;;;;;;;;;5049988;28;20189;-76
2024/02/23 01:47:06;;;;;;;7.60;2.33;;;;;;;;;;5005164;28;20182;-79
2024/02/23 01:49:33;;;;;;;5.20;1.97;;;;;;;;;;5052487;28;20268;-77
2024/02/23 01:52:00;;;;;;;5.93;1.80;;;;;;;;;;5038375;28;20240;-78
2024/02/23 01:54:28;;;;;;;3.47;1.50;;;;;;;;;;5023595;28;20262;-78
2024/02/23 01:56:53;;;;;;;4.97;1.83;;;;;;;;;;5025675;28;20280;-80
2024/02/23 01:59:20;;;;;;;5.37;1.70;;;;;;;;;;5012154;28;20281;-80
2024/02/23 02:01:45;;;;;;;6.43;1.30;;;;;;;;;;5030598;28;20193;-76
2024/02/23 02:04:11;;;;;;;9.90;1.30;;;;;;;;;;5048203;28;20189;-77
2024/02/23 02:06:36;;;;;;;4.20;1.07;;;;;;;;;;5040767;28;20560;-76
2024/02/23 02:09:02;;;;;;;4.27;1.27;;;;;;;;;;5038465;28;20207;-76
2024/02/23 02:11:27;;;;;;;4.90;0.70;;;;;;;;;;5032766;28;20220;-79
2024/02/23 02:13:53;;;;;;;2.00;0.90;;;;;;;;;;5044047;28;20589;-77
2024/02/23 02:16:18;;;;;;;4.27;1.10;;;;;;;;;;5034970;28;20194;-77
2024/02/23 02:18:45;;;;;;;5.07;0.80;;;;;;;;;;5032569;28;20240;-77
2024/02/23 02:21:11;;;;;;;4.77;1.10;;;;;;;;;;5041735;28;20185;-77
2024/02/23 02:23:37;;;;;;;3.73;1.00;;;;;;;;;;5034462;28;20193;-77
2024/02/23 02:26:03;;;;;;;4.03;0.80;;;;;;;;;;5026798;28;20236;-76
2024/02/23 02:28:28;;;;;;;2.37;0.60;;;;;;;;;;5031291;28;20186;-77
2024/02/23 02:30:54;;;;;;;2.27;0.33;;;;;;;;;;5043580;28;20186;-75
2024/02/23 02:33:21;;;;;;;2.27;0.40;;;;;;;;;;5034726;28;20192;-76
2024/02/23 02:35:46;;;;;;;1.60;0.30;;;;;;;;;;5045598;28;20221;-75
2024/02/23 02:38:11;;;;;;;2.67;0.20;;;;;;;;;;5020625;28;20220;-75
2024/02/23 02:40:37;;;;;;;1.43;0.20;;;;;;;;;;5025801;28;20248;-76
2024/02/23 02:43:03;;;;;;;3.20;0.40;;;;;;;;;;5036743;28;20269;-76
2024/02/23 02:45:29;;;;;;;0.70;0.30;;;;;;;;;;5030449;28;20181;-76
2024/02/23 02:47:56;;;;;;;2.23;0.70;;;;;;;;;;5032064;28;20178;-76
2024/02/23 02:50:21;;;;;;;5.17;0.80;;;;;;;;;;5040404;28;20190;-76
2024/02/23 02:52:47;;;;;;;3.00;0.87;;;;;;;;;;5039580;28;20201;-77
2024/02/23 02:55:12;;;;;;;3.43;1.03;;;;;;;;;;5031640;28;20198;-76
2024/02/23 02:57:38;;;;;;;4.17;1.60;;;;;;;;;;5045093;28;20606;-76
2024/02/23 03:00:05;;;;;;;4.37;1.70;;;;;;;;;;5044189;28;20231;-75
2024/02/23 03:02:33;;;;;;;5.10;2.20;;;;;;;;;;5016867;28;20502;-76
2024/02/23 03:04:59;;;;;;;4.87;1.87;;;;;;;;;;5009196;28;20251;-76
2024/02/23 03:07:24;;;;;;;2.77;1.63;;;;;;;;;;5044352;28;20198;-76
2024/02/23 03:09:50;;;;;;;6.47;2.67;;;;;;;;;;5031435;28;20173;-76
2024/02/23 03:12:16;;;;;;;7.07;3.07;;;;;;;;;;5049282;28;20217;-77
2024/02/23 03:14:41;;;;;;;5.40;3.00;;;;;;;;;;5034975;28;20193;-77
2024/02/23 03:17:08;;;;;;;8.60;3.00;;;;;;;;;;5022441;28;20186;-76
2024/02/23 03:19:33;;;;;;;8.83;4.57;;;;;;;;;;5043521;28;20280;-76
2024/02/23 03:21:59;;;;;;;6.53;3.53;;;;;;;;;;5041641;28;20711;-77
2024/02/23 03:24:26;;;;;;;9.43;3.57;;;;;;;;;;5018712;28;20218;-76
2024/02/23 03:26:51;;;;;;;13.67;3.97;;;;;;;;;;5039987;28;20248;-76
2024/02/23 03:29:17;;;;;;;9.13;3.63;;;;;;;;;;5041873;28;20189;-76
2024/02/23 03:31:42;;;;;;;8.27;3.60;;;;;;;;;;5048076;28;20256;-76
2024/02/23 03:34:08;;;;;;;9.13;3.13;;;;;;;;;;5050914;28;20273;-78
2024/02/23 03:36:34;;;;;;;8.37;2.37;;;;;;;;;;5029520;28;20276;-76
2024/02/23 03:39:00;;;;;;;9.30;2.47;;;;;;;;;;5030427;28;20190;-75
2024/02/23 03:41:26;;;;;;;9.30;1.80;;;;;;;;;;5048140;28;20181;-79
2024/02/23 03:43:51;;;;;;;8.80;1.80;;;;;;;;;;5046638;28;20301;-77
2024/02/23 03:46:17;;;;;;;4.37;1.80;;;;;;;;;;5049524;28;20194;-79
2024/02/23 03:48:44;;;;;;;4.80;1.50;;;;;;;;;;5038489;28;20182;-77
2024/02/23 03:51:10;;;;;;;8.80;1.60;;;;;;;;;;5025562;28;20189;-79
2024/02/23 03:53:35;;;;;;;3.93;1.10;;;;;;;;;;5043765;28;20593;-76
2024/02/23 03:56:01;;;;;;;5.60;1.50;;;;;;;;;;5013258;28;20186;-77
2024/02/23 03:58:26;;;;;;;6.43;1.70;;;;;;;;;;5033747;28;20186;-79
2024/02/23 04:00:52;;;;;;;7.27;1.70;;;;;;;;;;5022902;28;20551;-76
2024/02/23 04:03:17;;;;;;;10.67;2.23;;;;;;;;;;5039799;28;20209;-77
2024/02/23 04:05:43;;;;;;;6.80;1.80;;;;;;;;;;5045403;28;20194;-80
2024/02/23 04:08:08;;;;;;;4.43;1.83;;;;;;;;;;5019281;28;20316;-76
2024/02/23 04:10:34;;;;;;;7.80;2.13;;;;;;;;;;5019587;28;20240;-76
2024/02/23 04:13:00;;;;;;;8.40;1.97;;;;;;;;;;5035841;28;20299;-77
2024/02/23 04:15:26;;;;;;;10.00;1.77;;;;;;;;;;5021384;28;20563;-77
2024/02/23 04:17:52;;;;;;;6.87;2.07;;;;;;;;;;5032827;28;20194;-77
2024/02/23 04:20:17;;;;;;;5.90;1.30;;;;;;;;;;5020365;28;20186;-76
2024/02/23 04:22:43;;;;;;;7.37;2.07;;;;;;;;;;5026590;28;20183;-78
2024/02/23 04:25:09;;;;;;;7.07;1.40;;;;;;;;;;5021725;28;20194;-77
2024/02/23 04:27:35;;;;;;;10.83;1.53;;;;;;;;;;5026211;28;20179;-76
2024/02/23 04:30:00;;;;;;;5.83;1.60;;;;;;;;;;5035594;28;20197;-76
2024/02/23 04:32:26;;;;;;;6.63;1.63;;;;;;;;;;5006367;28;20279;-79
2024/02/23 04:34:51;;;;;;;6.93;1.47;;;;;;;;;;5045022;28;20181;-79
2024/02/23 04:37:16;;;;;;;5.07;1.40;;;;;;;;;;5038439;28;20656;-76
2024/02/23 04:39:44;;;;;;;9.80;1.47;;;;;;;;;;5042807;28;20277;-78
2024/02/23 04:42:09;;;;;;;7.33;1.17;;;;;;;;;;5033450;28;20692;-79
2024/02/23 04:44:35;;;;;;;5.60;2.33;;;;;;;;;;5040406;28;20194;-78
2024/02/23 04:47:01;;;;;;;6.20;1.47;;;;;;;;;;5029834;28;20210;-77
2024/02/23 04:49:27;;;;;;;12.10;1.63;;;;;;;;;;5029930;28;20481;-75
2024/02/23 04:51:53;;;;;;;7.23;1.60;;;;;;;;;;5034371;28;20289;-77
2024/02/23 04:54:18;;;;;;;7.33;1.23;;;;;;;;;;5017081;28;20614;-80
2024/02/23 04:56:44;;;;;;;6.80;1.10;;;;;;;;;;5032521;28;20207;-77
2024/02/23 04:59:09;;;;;;;11.87;1.83;;;;;;;;;;5031993;28;20205;-79
2024/02/23 05:01:38;;;;;;;8.60;1.10;;;;;;;;;;5036793;28;20236;-76
2024/02/23 05:04:04;;;;;;;4.43;1.47;;;;;;;;;;5046489;28;20261;-80
2024/02/23 05:06:30;;;;;;;6.80;1.50;;;;;;;;;;5021719;28;20277;-78
2024/02/23 05:08:55;;;;;;;8.83;1.67;;;;;;;;;;5030649;28;20674;-78
2024/02/23 05:11:21;;;;;;;11.07;2.30;;;;;;;;;;5015317;28;20229;-78
2024/02/23 05:13:47;;;;;;;8.30;1.87;;;;;;;;;;5040109;28;20209;-77
2024/02/23 05:16:14;;;;;;;3.67;1.20;;;;;;;;;;5035656;28;20186;-79
2024/02/23 05:18:40;;;;;;;6.60;1.90;;;;;;;;;;5042308;28;20253;-81
2024/02/23 05:21:06;;;;;;;11.13;1.53;;;;;;;;;;5037025;28;20197;-79
2024/02/23 05:23:31;;;;;;;6.87;2.30;;;;;;;;;;5038160;28;20192;-80
2024/02/23 05:25:56;;;;;;;6.13;1.80;;;;;;;;;;5041028;28;20258;-79
2024/02/23 05:28:22;;;;;;;6.93;2.30;;;;;;;;;;5032913;28;20218;-78
2024/02/23 05:30:47;;;;;;;7.63;1.60;;;;;;;;;;5027167;28;20631;-77
2024/02/23 05:33:13;;;;;;;10.53;1.40;;;;;;;;;;5015744;28;20265;-77
2024/02/23 05:35:38;;;;;;;9.10;1.87;;;;;;;;;;5012811;28;20186;-77
2024/02/23 05:38:06;;;;;;;5.40;1.17;;;;;;;;;;5015532;28;20191;-78
2024/02/23 05:40:35;;;;;;;7.90;1.40;;;;;;;;;;5016411;28;20182;-77
2024/02/23 05:43:01;;;;;;;9.13;1.67;;;;;;;;;;5032720;28;20201;-81
2024/02/23 05:45:27;;;;;;;5.67;1.53;;;;;;;;;;5030564;28;20182;-80
2024/02/23 05:47:52;;;;;;;10.57;1.80;;;;;;;;;;5015072;28;20200;-79
2024/02/23 05:50:18;;;;;;;8.07;1.57;;;;;;;;;;5018904;28;20274;-80
2024/02/23 05:52:43;;;;;;;7.30;1.77;;;;;;;;;;5029936;28;20374;-78
2024/02/23 05:55:09;;;;;;;5.70;1.40;;;;;;;;;;5030603;28;20707;-80
2024/02/23 05:57:34;;;;;;;4.63;1.33;;;;;;;;;;5038113;28;20185;-80
2024/02/23 06:00:00;;;;;;;9.23;1.43;;;;;;;;;;5045950;28;20181;-80
2024/02/23 06:02:25;;;;;;;6.93;1.37;;;;;;;;;;5047954;28;20217;-80
2024/02/23 06:04:51;;;;;;;8.97;1.30;;;;;;;;;;5037133;28;20196;-79
2024/02/23 06:07:16;;;;;;;6.33;1.27;;;;;;;;;;5025463;28;20629;-78
2024/02/23 06:09:43;;;;;;;6.33;1.50;;;;;;;;;;5047052;28;20824;-77
2024/02/23 06:12:09;;;;;;;4.63;1.20;;;;;;;;;;5029288;28;20305;-77
2024/02/23 06:14:35;;;;;;;6.93;1.17;;;;;;;;;;5029485;28;20224;-78
2024/02/23 06:17:01;;;;;;;8.30;1.67;;;;;;;;;;5028946;28;20186;-78
2024/02/23 06:19:27;;;;;;;12.43;2.33;;;;;;;;;;5018907;28;20244;-79
2024/02/23 06:21:52;;;;;;;6.43;1.27;;;;;;;;;;5040928;28;20198;-80
2024/02/23 06:24:19;;;;;;;5.77;1.63;;;;;;;;;;5033274;28;20233;-79
2024/02/23 06:26:46;;;;;;;7.80;1.70;;;;;;;;;;5043390;28;20424;-82
2024/02/23 06:29:12;;;;;;;9.23;1.70;;;;;;;;;;5035893;28;20205;-80
2024/02/23 06:31:38;;;;;;;5.80;1.40;;;;;;;;;;5036769;28;20282;-79
2024/02/23 06:34:05;;;;;;;9.20;1.73;;;;;;;;;;5031322;28;20598;-76
2024/02/23 06:36:30;;;;;;;4.43;2.27;;;;;;;;;;5027982;28;20201;-77
2024/02/23 06:38:56;;;;;;;9.30;2.17;;;;;;;;;;5033119;28;20332;-80
2024/02/23 06:41:22;;;;;;;9.90;1.70;;;;;;;;;;5046631;28;20178;-80
2024/02/23 06:43:47;;;;;;;6.20;2.20;;;;;;;;;;5020592;28;20177;-79
2024/02/23 06:46:13;;;;;;;6.33;1.30;;;;;;;;;;5052751;28;20239;-80
2024/02/23 06:48:38;;;;;;;7.97;1.43;;;;;;;;;;5039352;28;20206;-80
2024/02/23 06:51:05;;;;;;;5.90;1.50;;;;;;;;;;5041113;28;20299;-79
2024/02/23 06:53:32;;;;;;;8.73;1.50;;;;;;;;;;5035826;28;20197;-78
2024/02/23 06:55:58;;;;;;;10.23;1.63;;;;;;;;;;5047718;28;20186;-77
2024/02/23 06:58:24;;;;;;;5.80;1.27;;;;;;;;;;5036975;28;20251;-77
2024/02/23 07:00:49;;;;;;;7.43;1.20;;;;;;;;;;5045525;28;20181;-79
2024/02/23 07:03:16;;;;;;;7.10;1.70;;;;;;;;;;5041661;28;20269;-78
2024/02/23 07:05:43;;;;;;;5.40;1.00;;;;;;;;;;5046845;28;20190;-80
2024/02/23 07:08:09;;;;;;;6.00;1.20;;;;;;;;;;5030092;28;20186;-78
2024/02/23 07:10:34;;;;;;;12.00;1.90;;;;;;;;;;5019145;28;20194;-79
2024/02/23 07:13:01;;;;;;;6.90;1.17;;;;;;;;;;5036506;28;20289;-79
2024/02/23 07:15:26;;;;;;;3.53;1.07;;;;;;;;;;5042180;28;20189;-78
2024/02/23 07:17:52;;;;;;;9.97;1.77;;;;;;;;;;5026218;28;20201;-78
2024/02/23 07:20:19;;;;;;;9.03;1.10;;;;;;;;;;5039761;28;20717;-78
2024/02/23 07:22:45;;;;;;;7.40;1.53;;;;;;;;;;5042993;28;20206;-79
2024/02/23 07:25:11;;;;;;;5.20;1.20;;;;;;;;;;5028717;28;20189;-77
2024/02/23 07:27:37;;;;;;;8.83;1.47;;;;;;;;;;5040713;28;20189;-79
2024/02/23 07:30:04;;;;;;;5.17;1.03;;;;;;;;;;5039131;28;20213;-78
2024/02/23 07:32:30;;;;;;;4.63;1.03;;;;;;;;;;5031525;28;20273;-77
2024/02/23 07:34:55;;;;;;;6.40;0.97;;;;;;;;;;5041478;28;20260;-77
2024/02/23 07:37:21;;;;;;;10.33;1.40;;;;;;;;;;5024787;28;20829;-78
2024/02/23 07:39:46;;;;;;;8.13;1.00;;;;;;;;;;5040528;28;20240;-79
2024/02/23 07:42:14;;;;;;;5.23;0.80;;;;;;;;;;5018474;28;20276;-78
2024/02/23 07:44:41;;;;;;;6.70;1.20;;;;;;;;;;5032583;28;20193;-79
2024/02/23 07:47:06;;;;;;;6.77;1.40;;;;;;;;;;5011065;28;20269;-78
2024/02/23 07:49:32;;;;;;;7.07;1.10;;;;;;;;;;5033195;28;20198;-78
2024/02/23 07:51:57;;;;;;;6.77;1.10;;;;;;;;;;5037327;28;20240;-79
2024/02/23 07:54:23;;;;;;;9.63;1.20;;;;;;;;;;5034754;28;20200;-80
2024/02/23 07:56:48;;;;;;;9.80;1.07;;;;;;;;;;5041208;28;20189;-78
2024/02/23 07:59:14;;;;;;;6.60;1.50;;;;;;;;;;5034163;28;20181;-78
2024/02/23 08:01:40;;;;;;;7.77;1.20;;;;;;;;;;5028581;28;20186;-78
2024/02/23 08:04:06;;;;;;;4.73;1.00;;;;;;;;;;5042020;28;20262;-80
2024/02/23 08:06:31;;;;;;;4.67;0.93;;;;;;;;;;5013897;28;20669;-79
2024/02/23 08:08:57;;;;;;;5.57;1.07;;;;;;;;;;5031453;28;20545;-79
2024/02/23 08:11:22;;;;;;;5.03;1.00;;;;;;;;;;5038743;28;20201;-80
2024/02/23 08:13:47;;;;;;;4.90;1.00;;;;;;;;;;5023566;28;20178;-78
2024/02/23 08:16:16;;;;;;;8.30;1.27;;;;;;;;;;5027482;28;20221;-79
2024/02/23 08:18:41;;;;;;;6.10;0.87;;;;;;;;;;5032329;28;20648;-80
2024/02/23 08:21:07;;;;;;;7.38;1.08;;;;;;;;;;5035564;28;20183;-78
2024/02/23 08:23:33;;;;;;;3.47;0.83;;;;;;;;;;5034004;28;20196;-79
2024/02/23 08:26:00;;;;;;;5.27;1.00;;;;;;;;;;5037945;28;20269;-79
2024/02/23 08:28:25;;;;;;;8.60;1.20;;;;;;;;;;5042835;28;20190;-80
2024/02/23 08:30:51;;;;;;;6.50;0.85;;;;;;;;;;5020070;28;20184;-77
2024/02/23 08:33:16;;;;;;;9.77;2.00;;;;;;;;;;5040398;28;20216;-78
2024/02/23 08:35:42;;;;;;;7.47;1.20;;;;;;;;;;5036244;28;20190;-78
2024/02/23 08:38:08;;;;;;;5.90;1.03;;;;;;;;;;5039268;28;20254;-79
2024/02/23 08:40:35;;;;;;;8.20;1.05;;;;;;;;;;5046315;28;20267;-78
2024/02/23 08:43:00;;;;;;;9.20;1.20;;;;;;;;;;5025490;28;20285;-79
2024/02/23 08:45:26;;;;;;;6.78;1.67;;;;;;;;;;5041441;28;20190;-76
2024/02/23 08:47:51;;;;;;;5.93;1.27;;;;;;;;;;5046631;28;20195;-78
2024/02/23 08:50:16;;;;;;;5.77;1.13;;;;;;;;;;5022330;28;20183;-78
2024/02/23 08:52:42;;;;;;;7.00;1.10;;;;;;;;;;5037981;28;20221;-76
2024/02/23 08:55:09;;;;;;;5.23;1.10;;;;;;;;;;5041040;28;20224;-79
2024/02/23 08:57:34;;;;;;;4.30;0.87;;;;;;;;;;5029425;28;20336;-79
2024/02/23 09:00:01;;;;;;;5.10;1.20;;;;;;;;;;5041167;28;20664;-78
2024/02/23 09:02:27;;;;;;;6.30;0.90;;;;;;;;;;4996537;28;20185;-76
2024/02/23 09:04:52;;;;;;;7.90;1.13;;;;;;;;;;5040548;28;20779;-78
2024/02/23 09:07:20;;;;;;;3.85;0.60;;;;;;;;;;5032535;28;20561;-78
2024/02/23 09:09:47;;;;;;;4.75;0.88;;;;;;;;;;5026019;28;20186;-79
2024/02/23 09:12:16;;;;;;;5.03;0.80;;;;;;;;;;5036340;28;20214;-77
2024/02/23 09:14:43;;;;;;;5.20;1.00;;;;;;;;;;5038121;28;20190;-78
2024/02/23 09:17:09;;;;;;;6.45;1.30;;;;;;;;;;5031148;28;20214;-79
2024/02/23 09:19:36;;;;;;;6.07;0.80;;;;;;;;;;5028940;28;20275;-79
2024/02/23 09:22:02;;;;;;;5.25;1.00;;;;;;;;;;5020274;28;20183;-77
2024/02/23 09:24:28;;;;;;;6.97;1.35;;;;;;;;;;5034085;28;20199;-77
2024/02/23 09:26:53;;;;;;;3.83;1.00;;;;;;;;;;5033639;28;20216;-78
2024/02/23 09:29:19;;;;;;;5.72;0.70;;;;;;;;;;5042488;28;20653;-78
2024/02/23 09:31:45;;;;;;;3.40;0.70;;;;;;;;;;5033756;28;20258;-78
2024/02/23 09:34:10;;;;;;;8.13;1.10;;;;;;;;;;5026876;28;20420;-79
2024/02/23 09:36:36;;;;;;;5.25;0.93;;;;;;;;;;5038608;28;20189;-79
2024/02/23 09:39:04;;;;;;;3.50;0.82;;;;;;;;;;5032433;28;20214;-78
2024/02/23 09:41:30;;;;;;;6.50;0.90;;;;;;;;;;5036131;28;20281;-78
2024/02/23 09:43:59;;;;;;;8.15;1.23;;;;;;;;;;5023332;28;20658;-75
2024/02/23 09:46:25;;;;;;;4.32;0.80;;;;;;;;;;5044139;28;20193;-78
2024/02/23 09:48:52;;;;;;;6.35;0.98;;;;;;;;;;5018058;28;20208;-78
2024/02/23 09:51:17;;;;;;;6.72;0.95;;;;;;;;;;5029203;28;20217;-78
2024/02/23 09:53:43;;;;;;;5.25;0.73;;;;;;;;;;5023556;28;20185;-78
2024/02/23 09:56:10;;;;;;;4.45;1.30;;;;;;;;;;5013604;28;20193;-78
2024/02/23 09:58:41;;;;;;;7.40;0.90;;;;;;;;;;5029791;28;20190;-77
2024/02/23 10:01:07;;;;;;;4.65;0.82;;;;;;;;;;5029497;28;20190;-80
2024/02/23 10:03:33;;;;;;;4.10;1.00;;;;;;;;;;5034437;28;20672;-78
2024/02/23 10:05:59;;;;;;;4.85;0.70;;;;;;;;;;5032390;28;20228;-78
2024/02/23 10:08:25;;;;;;;6.03;0.77;;;;;;;;;;5025800;28;20208;-78
2024/02/23 10:10:56;;;;;;;4.68;1.17;;;;;;;;;;5029248;28;20198;-78
2024/02/23 10:13:26;;;;;;;4.90;0.70;;;;;;;;;;5032831;28;20205;-79
2024/02/23 10:15:52;;;;;;;8.73;1.15;;;;;;;;;;5028261;28;20625;-77
2024/02/23 10:18:19;;;;;;;9.57;1.17;;;;;;;;;;5026372;28;20230;-76
2024/02/23 10:20:44;;;;;;;5.80;0.60;;;;;;;;;;5016300;28;20221;-76
2024/02/23 10:23:10;;;;;;;6.40;0.93;;;;;;;;;;5011481;28;20585;-77
2024/02/23 10:25:36;;;;;;;7.38;1.08;;;;;;;;;;5031307;28;20202;-77
2024/02/23 10:28:06;;;;;;;2.90;0.57;;;;;;;;;;5035875;28;20190;-78
2024/02/23 10:30:32;;;;;;;5.80;0.80;;;;;;;;;;5036720;28;20185;-75
2024/02/23 10:32:58;;;;;;;5.03;0.90;;;;;;;;;;5038848;28;20202;-78
2024/02/23 10:35:24;;;;;;;4.97;0.93;;;;;;;;;;5020858;28;20716;-78
2024/02/23 10:37:51;;;;;;;7.03;0.85;;;;;;;;;;5021696;28;20198;-77
2024/02/23 10:40:17;;;;;;;7.28;1.20;;;;;;;;;;5027864;28;20186;-77
2024/02/23 10:42:51;;;;;;;5.82;0.88;;;;;;;;;;5045016;28;20374;-77
2024/02/23 10:45:21;;;;;;;9.00;0.90;;;;;;;;;;5042208;28;20185;-77
2024/02/23 10:47:51;;;;;;;8.32;0.98;;;;;;;;;;5029855;28;20189;-79
2024/02/23 10:50:19;;;;;;;5.00;0.68;;;;;;;;;;5046032;28;20280;-78
2024/02/23 10:52:48;;;;;;;2.65;0.50;;;;;;;;;;5002580;28;20207;-78
2024/02/23 10:55:14;;;;;;;8.93;1.02;;;;;;;;;;5048433;28;20200;-77
2024/02/23 10:57:40;;;;;;;6.97;1.27;;;;;;;;;;5040976;28;20190;-77
2024/02/23 11:00:09;;;;;;;5.50;0.77;;;;;;;;;;5028445;28;20739;-76
2024/02/23 11:02:56;;;;;;;3.30;0.82;;;;;;;;;;5032216;28;20265;-78
2024/02/23 11:05:22;;;;;;;3.30;0.60;;;;;;;;;;5046796;28;20310;-79
2024/02/23 11:07:49;;;;;;;3.38;0.77;;;;;;;;;;5035438;28;20268;-77
2024/02/23 11:10:16;;;;;;;6.47;0.60;;;;;;;;;;5025971;28;20197;-80
2024/02/23 11:12:43;;;;;;;9.80;0.75;;;;;;;;;;5006274;28;20684;-78
2024/02/23 11:15:10;;;;;;;3.72;0.73;;;;;;;;;;5033701;28;20188;-77
2024/02/23 11:17:38;;;;;;;3.78;0.60;;;;;;;;;;5024294;28;20197;-78
2024/02/23 11:20:04;;;;;;;8.63;0.82;;;;;;;;;;5033747;28;20237;-79
2024/02/23 11:22:31;;;;;;;3.35;0.57;;;;;;;;;;5033759;28;20192;-79
2024/02/23 11:25:06;;;;;;;7.07;0.90;;;;;;;;;;5030928;28;20273;-79
2024/02/23 11:27:33;;;;;;;6.70;1.20;;;;;;;;;;5041748;28;20200;-76
2024/02/23 11:30:08;;;;;;;4.65;0.82;;;;;;;;;;5040151;28;20195;-77
2024/02/23 11:32:44;;;;;;;5.25;0.80;;;;;;;;;;5020664;28;20213;-78
2024/02/23 11:35:19;;;;;;;6.45;0.95;;;;;;;;;;5020333;28;20191;-78
2024/02/23 11:37:56;;;;;;;5.75;0.93;;;;;;;;;;5022989;28;20280;-79
2024/02/23 11:40:22;;;;;;;4.55;1.27;;;;;;;;;;5024466;28;20209;-79
2024/02/23 11:42:47;;;;;;;4.75;0.95;;;;;;;;;;5041540;28;20192;-77
2024/02/23 11:45:13;;;;;;;7.32;0.90;;;;;;;;;;5034953;28;20724;-77
2024/02/23 11:47:39;;;;;;;5.40;0.77;;;;;;;;;;5033591;28;20194;-78
2024/02/23 11:50:08;;;;;;;5.95;1.50;;;;;;;;;;5033248;28;20654;-78
2024/02/23 11:52:36;;;;;;;3.67;1.00;;;;;;;;;;5031478;28;20275;-78
2024/02/23 11:55:04;;;;;;;5.68;0.73;;;;;;;;;;5049740;28;20197;-78
2024/02/23 11:57:34;;;;;;;6.60;0.85;;;;;;;;;;5022248;28;20190;-78
2024/02/23 12:00:02;;;;;;;7.07;1.05;;;;;;;;;;5034812;28;20179;-78
2024/02/23 12:02:27;;;;;;;7.68;1.75;;;;;;;;;;5039728;28;20616;-79
2024/02/23 12:04:53;;;;;;;2.03;0.80;;;;;;;;;;5025443;28;20217;-78
2024/02/23 12:07:19;;;;;;;4.57;0.90;;;;;;;;;;5024550;28;20225;-79
2024/02/23 12:09:45;;;;;;;4.13;0.98;;;;;;;;;;5029129;28;20665;-78
2024/02/23 12:12:11;;;;;;;2.38;0.70;;;;;;;;;;5035579;28;20256;-78
2024/02/23 12:14:36;;;;;;;4.57;0.98;;;;;;;;;;5038614;28;20189;-78
2024/02/23 12:17:03;;;;;;;5.45;0.95;;;;;;;;;;5025122;28;20187;-77
2024/02/23 12:19:29;;;;;;;2.70;0.73;;;;;;;;;;5051089;28;20328;-78
2024/02/23 12:22:00;;;;;;;4.38;0.82;;;;;;;;;;5035546;28;20184;-79
2024/02/23 12:24:28;;;;;;;4.65;1.00;;;;;;;;;;5036855;28;20633;-78
2024/02/23 12:26:56;;;;;;;6.63;1.35;;;;;;;;;;5032441;28;20217;-77
2024/02/23 12:29:23;;;;;;;5.93;1.30;;;;;;;;;;5029182;28;20662;-78
2024/02/23 12:31:48;;;;;;;5.28;0.98;;;;;;;;;;5032844;28;20745;-78
2024/02/23 12:34:14;;;;;;;5.32;1.35;;;;;;;;;;5032183;28;20190;-78
2024/02/23 12:36:39;;;;;;;3.92;0.95;;;;;;;;;;5044120;28;20191;-78
2024/02/23 12:39:05;;;;;;;9.40;1.00;;;;;;;;;;5044375;28;20193;-78
2024/02/23 12:41:32;;;;;;;6.32;1.35;;;;;;;;;;5038004;28;20178;-78
2024/02/23 12:43:58;;;;;;;6.80;1.27;;;;;;;;;;5020955;28;20244;-78
2024/02/23 12:46:23;;;;;;;5.63;1.10;;;;;;;;;;5044784;28;20181;-78
2024/02/23 12:48:49;;;;;;;4.95;0.73;;;;;;;;;;5018315;28;20185;-78
2024/02/23 12:51:15;;;;;;;7.63;1.05;;;;;;;;;;5014467;28;20190;-78
2024/02/23 12:53:42;;;;;;;4.65;0.90;;;;;;;;;;5025454;28;20214;-78
2024/02/23 12:56:10;;;;;;;6.18;1.05;;;;;;;;;;5047366;28;20195;-78
2024/02/23 12:58:40;;;;;;;4.28;0.63;;;;;;;;;;5043691;28;20189;-78
2024/02/23 13:01:06;;;;;;;1.90;0.50;;;;;;;;;;5042027;28;20266;-78
2024/02/23 13:03:33;;;;;;;4.68;1.00;;;;;;;;;;5021754;28;20289;-78
2024/02/23 13:05:59;;;;;;;4.82;0.80;;;;;;;;;;5028769;28;20189;-78
2024/02/23 13:08:25;;;;;;;3.35;0.85;;;;;;;;;;5052031;28;20186;-78
2024/02/23 13:10:52;;;;;;;5.95;1.20;;;;;;;;;;5048773;28;20186;-78
2024/02/23 13:13:18;;;;;;;2.50;0.77;;;;;;;;;;5041993;28;20218;-79
2024/02/23 13:15:45;;;;;;;4.63;0.80;;;;;;;;;;5033799;28;20552;-79
2024/02/23 13:18:10;;;;;;;3.70;0.77;;;;;;;;;;5031577;28;20238;-78
2024/02/23 13:20:38;;;;;;;5.43;0.90;;;;;;;;;;5043260;28;20747;-77
2024/02/23 13:23:04;;;;;;;3.95;0.90;;;;;;;;;;5028307;28;20251;-78
2024/02/23 13:25:29;;;;;;;2.75;0.73;;;;;;;;;;5029708;28;20703;-78
2024/02/23 13:27:55;;;;;;;5.05;1.15;;;;;;;;;;5044569;28;20210;-77
2024/02/23 13:30:20;;;;;;;3.53;0.77;;;;;;;;;;5045565;28;20193;-79
2024/02/23 13:32:46;;;;;;;4.57;0.77;;;;;;;;;;5033903;28;20210;-78
2024/02/23 13:35:11;;;;;;;6.45;1.10;;;;;;;;;;5032137;28;20719;-78
2024/02/23 13:37:37;;;;;;;3.15;1.13;;;;;;;;;;5043751;28;20189;-79
2024/02/23 13:40:05;;;;;;;5.88;1.20;;;;;;;;;;5036100;28;20290;-79
2024/02/23 13:42:31;;;;;;;4.65;0.77;;;;;;;;;;5031358;28;20269;-78
2024/02/23 13:44:56;;;;;;;5.70;1.00;;;;;;;;;;5038563;28;20618;-78
2024/02/23 13:47:22;;;;;;;6.55;0.90;;;;;;;;;;5033850;28;20190;-78
2024/02/23 13:49:47;;;;;;;3.63;0.70;;;;;;;;;;5029156;28;20225;-78
2024/02/23 13:52:13;;;;;;;5.18;0.80;;;;;;;;;;5027248;28;20206;-78
2024/02/23 13:54:38;;;;;;;5.88;1.67;;;;;;;;;;5032280;28;20193;-78
2024/02/23 13:57:04;;;;;;;4.07;1.02;;;;;;;;;;5045070;28;20647;-78
2024/02/23 13:59:29;;;;;;;3.47;1.15;;;;;;;;;;5026031;28;20297;-78
2024/02/23 14:01:55;;;;;;;6.28;1.33;;;;;;;;;;5014723;28;20711;-78
2024/02/23 14:04:20;;;;;;;3.53;0.77;;;;;;;;;;5035072;28;20559;-79
2024/02/23 14:06:46;;;;;;;6.70;1.25;;;;;;;;;;5007651;28;20626;-78
2024/02/23 14:09:11;;;;;;;4.28;0.80;;;;;;;;;;5031533;28;20190;-78
2024/02/23 14:11:37;;;;;;;4.47;0.88;;;;;;;;;;5029893;28;20198;-78
2024/02/23 14:14:02;;;;;;;5.07;1.42;;;;;;;;;;5013724;28;20693;-78
2024/02/23 14:16:28;;;;;;;7.45;1.20;;;;;;;;;;5024890;28;20187;-79
2024/02/23 14:18:55;;;;;;;3.67;0.80;;;;;;;;;;5024688;28;20236;-80
2024/02/23 14:21:22;;;;;;;5.35;1.00;;;;;;;;;;5016243;28;20701;-79
2024/02/23 14:23:48;;;;;;;4.97;1.05;;;;;;;;;;5042041;28;20691;-79
2024/02/23 14:26:13;;;;;;;4.85;1.00;;;;;;;;;;5042217;28;20276;-79
2024/02/23 14:28:39;;;;;;;4.07;0.70;;;;;;;;;;5026063;28;20486;-78
2024/02/23 14:31:04;;;;;;;2.67;1.42;;;;;;;;;;5044385;28;20245;-79
2024/02/23 14:33:32;;;;;;;4.47;0.95;;;;;;;;;;5019269;28;20276;-78
2024/02/23 14:35:57;;;;;;;3.90;1.02;;;;;;;;;;5038804;28;20194;-79